Climatologie pour Saint-Brevin les Pins
Jour • Résumé pour juillet 3, 2017 Système :  Métrique    Anglais   Mixte
« - 1 jour
+ 1 jour »
Jour Semaine Mois Année Personnalisé
  Maximum : Minimum : Moyenne :
Température sous abri : 20.6 °C 14.4 °C 17.5 °C
Point de rosée : 15.9 °C 13.3 °C 14.6 °C
Humidité : 94 % 66 % 83 %
Vitesse du vent : 22.5 km/h 0.0 km/h 6 km/h
Rafale : 27.4 km/h - -
Direction :- - West
Pression : 1025.6 hPa 1022.6 hPa -
Précipitations : 0.0 mm    
Historical Graphs
 
 
Tableau de données pour juillet 3, 2017
Heure Tempé Pt rosée Pression Vent Vitesse Rafale Humidité Taux pluie (/hr) Soleil
00:00 15.9 °C 14.0 °C 1025.6 hPa WNW 3.2 km/h 19.3 km/h 88 % 0.0 mm 0 W/m2
00:10 15.7 °C 13.9 °C 1025.6 hPa West 6.4 km/h 16.1 km/h 89 % 0.0 mm 0 W/m2
00:15 15.6 °C 13.6 °C 1025.3 hPa NW 16.1 km/h 19.3 km/h 88 % 0.0 mm 0 W/m2
00:20 15.5 °C 13.7 °C 1025.3 hPa West 8.0 km/h 19.3 km/h 89 % 0.0 mm 0 W/m2
00:25 15.4 °C 13.6 °C 1025.3 hPa WNW 4.8 km/h 17.7 km/h 89 % 0.0 mm 0 W/m2
00:30 15.3 °C 13.5 °C 1025.3 hPa Calm   17.7 km/h 89 % 0.0 mm 0 W/m2
00:35 15.3 °C 13.5 °C 1025.6 hPa WNW 9.7 km/h 17.7 km/h 89 % 0.0 mm 0 W/m2
00:40 15.2 °C 13.4 °C 1025.3 hPa WNW 4.8 km/h 14.5 km/h 89 % 0.0 mm 0 W/m2
00:45 15.2 °C 13.6 °C 1025.3 hPa NW 9.7 km/h 14.5 km/h 90 % 0.0 mm 0 W/m2
00:50 15.2 °C 13.5 °C 1025.3 hPa Calm   12.9 km/h 90 % 0.0 mm 0 W/m2
00:55 15.2 °C 13.6 °C 1025.3 hPa NW 8.0 km/h 11.3 km/h 90 % 0.0 mm 0 W/m2
01:00 15.3 °C 13.6 °C 1025.3 hPa WNW 8.0 km/h 16.1 km/h 90 % 0.0 mm 0 W/m2
01:05 15.3 °C 13.7 °C 1025.3 hPa West 6.4 km/h 17.7 km/h 90 % 0.0 mm 0 W/m2
01:10 15.3 °C 13.7 °C 1025.3 hPa West 9.7 km/h 17.7 km/h 90 % 0.0 mm 0 W/m2
01:15 15.3 °C 13.6 °C 1025.3 hPa West 9.7 km/h 16.1 km/h 90 % 0.0 mm 0 W/m2
01:20 15.3 °C 13.6 °C 1025.3 hPa WSW 6.4 km/h 16.1 km/h 90 % 0.0 mm 0 W/m2
01:25 15.3 °C 13.7 °C 1025.3 hPa West 19.3 km/h 19.3 km/h 90 % 0.0 mm 0 W/m2
01:30 15.3 °C 13.7 °C 1025.3 hPa West 8.0 km/h 19.3 km/h 90 % 0.0 mm 0 W/m2
01:35 15.3 °C 13.7 °C 1025.3 hPa WNW 4.8 km/h 19.3 km/h 90 % 0.0 mm 0 W/m2
01:40 15.4 °C 13.8 °C 1024.9 hPa West 1.6 km/h 14.5 km/h 90 % 0.0 mm 0 W/m2
01:45 15.6 °C 14.0 °C 1025.3 hPa NW 11.3 km/h 20.9 km/h 90 % 0.0 mm 0 W/m2
01:50 15.7 °C 14.0 °C 1025.3 hPa WNW 9.7 km/h 20.9 km/h 90 % 0.0 mm 0 W/m2
01:55 15.8 °C 14.1 °C 1025.3 hPa WNW 11.3 km/h 20.9 km/h 90 % 0.0 mm 0 W/m2
02:00 15.8 °C 14.2 °C 1025.3 hPa NW 8.0 km/h 16.1 km/h 90 % 0.0 mm 0 W/m2
02:05 15.8 °C 14.2 °C 1025.3 hPa West 9.7 km/h 16.1 km/h 90 % 0.0 mm 0 W/m2
02:10 15.9 °C 14.3 °C 1024.9 hPa WNW 4.8 km/h 16.1 km/h 90 % 0.0 mm 0 W/m2
02:15 15.9 °C 14.3 °C 1024.9 hPa West 11.3 km/h 17.7 km/h 90 % 0.0 mm 0 W/m2
02:20 15.9 °C 14.3 °C 1024.9 hPa NW 8.0 km/h 17.7 km/h 90 % 0.0 mm 0 W/m2
02:25 15.9 °C 14.3 °C 1024.9 hPa West 8.0 km/h 19.3 km/h 90 % 0.0 mm 0 W/m2
02:30 16.0 °C 14.4 °C 1024.9 hPa WNW 1.6 km/h 19.3 km/h 90 % 0.0 mm 0 W/m2
02:35 16.0 °C 14.4 °C 1024.9 hPa WNW 8.0 km/h 12.9 km/h 90 % 0.0 mm 0 W/m2
02:40 16.0 °C 14.4 °C 1024.9 hPa WNW 8.0 km/h 19.3 km/h 90 % 0.0 mm 0 W/m2
02:45 16.1 °C 14.4 °C 1024.9 hPa WNW 3.2 km/h 19.3 km/h 90 % 0.0 mm 0 W/m2
02:50 16.1 °C 14.4 °C 1024.9 hPa WNW 8.0 km/h 14.5 km/h 90 % 0.0 mm 0 W/m2
02:55 16.1 °C 14.4 °C 1024.9 hPa WNW 3.2 km/h 16.1 km/h 90 % 0.0 mm 0 W/m2
03:00 16.1 °C 14.4 °C 1024.9 hPa WNW 8.0 km/h 16.1 km/h 90 % 0.0 mm 0 W/m2
03:05 16.1 °C 14.4 °C 1024.9 hPa WSW 3.2 km/h 14.5 km/h 90 % 0.0 mm 0 W/m2
03:10 16.1 °C 14.6 °C 1024.9 hPa Calm   12.9 km/h 91 % 0.0 mm 0 W/m2
03:15 16.1 °C 14.6 °C 1024.9 hPa WNW 3.2 km/h 12.9 km/h 91 % 0.0 mm 0 W/m2
03:20 16.1 °C 14.6 °C 1024.9 hPa WNW 3.2 km/h 14.5 km/h 91 % 0.0 mm 0 W/m2
03:25 16.2 °C 14.7 °C 1024.9 hPa WNW 4.8 km/h 14.5 km/h 91 % 0.0 mm 0 W/m2
03:30 16.2 °C 14.7 °C 1024.6 hPa Calm   12.9 km/h 91 % 0.0 mm 0 W/m2
03:35 16.2 °C 14.7 °C 1024.9 hPa NW 8.0 km/h 11.3 km/h 91 % 0.0 mm 0 W/m2
03:40 16.2 °C 14.7 °C 1024.6 hPa WNW 3.2 km/h 11.3 km/h 91 % 0.0 mm 0 W/m2
03:45 16.2 °C 14.8 °C 1024.6 hPa Calm   9.7 km/h 91 % 0.0 mm 0 W/m2
03:50 16.2 °C 14.7 °C 1024.6 hPa NW 6.4 km/h 11.3 km/h 91 % 0.0 mm 0 W/m2
03:55 16.2 °C 14.7 °C 1024.6 hPa Calm   11.3 km/h 91 % 0.0 mm 0 W/m2
04:00 16.2 °C 14.9 °C 1024.6 hPa WNW 1.6 km/h 9.7 km/h 92 % 0.0 mm 0 W/m2
04:05 16.2 °C 14.9 °C 1024.6 hPa WNW 4.8 km/h 9.7 km/h 92 % 0.0 mm 0 W/m2
04:10 16.2 °C 14.9 °C 1024.6 hPa Calm   9.7 km/h 92 % 0.0 mm 0 W/m2
04:15 16.2 °C 14.9 °C 1024.6 hPa Calm   6.4 km/h 92 % 0.0 mm 0 W/m2
04:20 16.2 °C 14.9 °C 1024.6 hPa Calm   6.4 km/h 92 % 0.0 mm 0 W/m2
04:25 16.2 °C 14.9 °C 1024.6 hPa Calm   1.6 km/h 92 % 0.0 mm 0 W/m2
04:30 16.2 °C 14.9 °C 1024.6 hPa Calm   1.6 km/h 92 % 0.0 mm 0 W/m2
04:35 16.2 °C 14.9 °C 1024.6 hPa Calm   1.6 km/h 92 % 0.0 mm 0 W/m2
04:40 16.2 °C 14.9 °C 1024.3 hPa Calm     92 % 0.0 mm 0 W/m2
04:45 16.2 °C 14.9 °C 1024.3 hPa Calm     92 % 0.0 mm 0 W/m2
04:50 16.2 °C 14.9 °C 1024.6 hPa Calm     92 % 0.0 mm 0 W/m2
04:55 16.1 °C 15.0 °C 1024.6 hPa Calm   1.6 km/h 93 % 0.0 mm 0 W/m2
05:00 16.1 °C 15.0 °C 1024.3 hPa Calm   1.6 km/h 93 % 0.0 mm 0 W/m2
05:05 16.1 °C 15.0 °C 1024.3 hPa Calm   1.6 km/h 93 % 0.0 mm 0 W/m2
05:15 16.1 °C 14.9 °C 1024.3 hPa Calm     93 % 0.0 mm 0 W/m2
05:20 16.1 °C 14.9 °C 1024.3 hPa Calm     93 % 0.0 mm 0 W/m2
05:25 16.1 °C 14.9 °C 1024.3 hPa Calm     93 % 0.0 mm 0 W/m2
05:30 16.1 °C 14.9 °C 1024.3 hPa Calm     93 % 0.0 mm 0 W/m2
05:35 16.1 °C 14.9 °C 1024.3 hPa Calm   1.6 km/h 93 % 0.0 mm 0 W/m2
05:40 16.0 °C 14.9 °C 1024.3 hPa Calm   4.8 km/h 93 % 0.0 mm 0 W/m2
05:45 16.1 °C 14.9 °C 1024.3 hPa Calm   6.4 km/h 93 % 0.0 mm 0 W/m2
05:50 16.1 °C 14.9 °C 1024.3 hPa NW 3.2 km/h 8.0 km/h 93 % 0.0 mm 0 W/m2
05:55 16.0 °C 14.9 °C 1024.6 hPa NW 3.2 km/h 8.0 km/h 93 % 0.0 mm 0 W/m2
06:00 16.1 °C 14.9 °C 1024.6 hPa NW 3.2 km/h 8.0 km/h 93 % 0.0 mm 0 W/m2
06:05 16.0 °C 14.9 °C 1024.6 hPa NW 1.6 km/h 6.4 km/h 93 % 0.0 mm 0 W/m2
06:10 16.0 °C 14.9 °C 1024.6 hPa Calm   6.4 km/h 93 % 0.0 mm 0 W/m2
06:15 16.0 °C 14.9 °C 1024.6 hPa NW 1.6 km/h 4.8 km/h 93 % 0.0 mm 0 W/m2
06:20 15.9 °C 14.8 °C 1024.6 hPa NW 3.2 km/h 3.2 km/h 93 % 0.0 mm 0 W/m2
06:25 15.9 °C 14.8 °C 1024.6 hPa Calm   3.2 km/h 93 % 0.0 mm 0 W/m2
06:30 15.9 °C 14.8 °C 1024.6 hPa NW 1.6 km/h 3.2 km/h 93 % 0.0 mm 0 W/m2
06:35 15.9 °C 14.8 °C 1024.6 hPa Calm   3.2 km/h 93 % 0.0 mm 0 W/m2
06:40 15.9 °C 14.8 °C 1024.6 hPa Calm   3.2 km/h 93 % 0.0 mm 5 W/m2
06:45 15.9 °C 14.8 °C 1024.6 hPa Calm   3.2 km/h 93 % 0.0 mm 7 W/m2
06:50 15.9 °C 14.8 °C 1024.6 hPa Calm     93 % 0.0 mm 9 W/m2
06:55 15.9 °C 14.8 °C 1024.6 hPa Calm   1.6 km/h 93 % 0.0 mm 14 W/m2
07:00 15.9 °C 14.8 °C 1024.6 hPa Calm   1.6 km/h 93 % 0.0 mm 23 W/m2
07:05 15.8 °C 14.7 °C 1024.6 hPa Calm     93 % 0.0 mm 28 W/m2
07:10 15.8 °C 14.7 °C 1024.6 hPa Calm     93 % 0.0 mm 37 W/m2
07:15 15.9 °C 14.8 °C 1024.6 hPa NW 3.2 km/h 4.8 km/h 93 % 0.0 mm 33 W/m2
07:20 15.9 °C 14.8 °C 1024.6 hPa Calm   4.8 km/h 93 % 0.0 mm 33 W/m2
07:25 15.9 °C 14.8 °C 1024.6 hPa Calm   4.8 km/h 93 % 0.0 mm 40 W/m2
07:30 16.0 °C 14.9 °C 1024.6 hPa Calm   1.6 km/h 93 % 0.0 mm 47 W/m2
07:35 16.0 °C 14.9 °C 1024.6 hPa Calm   3.2 km/h 93 % 0.0 mm 54 W/m2
07:40 16.1 °C 14.9 °C 1024.6 hPa Calm   3.2 km/h 93 % 0.0 mm 62 W/m2
07:45 16.1 °C 14.8 °C 1024.6 hPa NW 3.2 km/h 3.2 km/h 92 % 0.0 mm 72 W/m2
07:50 16.2 °C 15.0 °C 1024.6 hPa Calm   3.2 km/h 93 % 0.0 mm 72 W/m2
07:55 16.3 °C 15.0 °C 1024.6 hPa Calm   3.2 km/h 92 % 0.0 mm 74 W/m2
08:00 16.3 °C 14.8 °C 1024.6 hPa NW 3.2 km/h 4.8 km/h 91 % 0.0 mm 83 W/m2
08:05 16.2 °C 14.8 °C 1024.9 hPa NW 4.8 km/h 4.8 km/h 91 % 0.0 mm 86 W/m2
08:10 16.3 °C 14.8 °C 1024.9 hPa Calm   8.0 km/h 91 % 0.0 mm 93 W/m2
08:15 16.3 °C 14.9 °C 1024.9 hPa Calm   8.0 km/h 91 % 0.0 mm 98 W/m2
08:20 16.4 °C 15.0 °C 1024.9 hPa NW 4.8 km/h 4.8 km/h 91 % 0.0 mm 102 W/m2
08:25 16.4 °C 14.7 °C 1024.9 hPa Calm   4.8 km/h 90 % 0.0 mm 104 W/m2
08:30 16.4 °C 14.6 °C 1024.9 hPa Calm   6.4 km/h 89 % 0.0 mm 113 W/m2
08:35 16.6 °C 14.9 °C 1024.9 hPa NW 3.2 km/h 6.4 km/h 90 % 0.0 mm 118 W/m2
08:40 16.8 °C 15.0 °C 1024.9 hPa Calm   4.8 km/h 89 % 0.0 mm 123 W/m2
08:45 16.8 °C 14.8 °C 1024.9 hPa Calm   4.8 km/h 88 % 0.0 mm 130 W/m2
08:50 16.8 °C 14.8 °C 1024.9 hPa NW 1.6 km/h 6.4 km/h 88 % 0.0 mm 134 W/m2
08:55 17.1 °C 15.1 °C 1025.3 hPa NW 3.2 km/h 6.4 km/h 88 % 0.0 mm 142 W/m2
09:00 17.1 °C 15.1 °C 1025.3 hPa NW 6.4 km/h 6.4 km/h 88 % 0.0 mm 158 W/m2
09:05 17.2 °C 15.0 °C 1025.3 hPa NW 3.2 km/h 6.4 km/h 87 % 0.0 mm 163 W/m2
09:10 17.1 °C 14.9 °C 1025.3 hPa WNW 8.0 km/h 8.0 km/h 87 % 0.0 mm 179 W/m2
09:15 17.2 °C 15.0 °C 1025.3 hPa NW 3.2 km/h 8.0 km/h 87 % 0.0 mm 192 W/m2
09:20 17.4 °C 15.3 °C 1025.3 hPa NW 4.8 km/h 8.0 km/h 87 % 0.0 mm 200 W/m2
09:25 17.6 °C 15.4 °C 1025.3 hPa Calm   6.4 km/h 87 % 0.0 mm 225 W/m2
09:30 17.6 °C 15.4 °C 1025.3 hPa Calm   4.8 km/h 87 % 0.0 mm 237 W/m2
09:35 17.8 °C 15.5 °C 1025.3 hPa NW 6.4 km/h 6.4 km/h 86 % 0.0 mm 234 W/m2
09:40 17.8 °C 15.5 °C 1025.3 hPa Calm   8.0 km/h 86 % 0.0 mm 258 W/m2
09:45 17.9 °C 15.4 °C 1025.3 hPa NW 1.6 km/h 8.0 km/h 85 % 0.0 mm 269 W/m2
09:50 18.0 °C 15.6 °C 1025.3 hPa Calm   6.4 km/h 86 % 0.0 mm 262 W/m2
09:55 18.2 °C 15.6 °C 1025.3 hPa NW 1.6 km/h 8.0 km/h 85 % 0.0 mm 281 W/m2
10:00 18.0 °C 15.6 °C 1025.3 hPa NW 4.8 km/h 8.0 km/h 86 % 0.0 mm 295 W/m2
10:05 18.1 °C 15.5 °C 1025.3 hPa NW 1.6 km/h 6.4 km/h 85 % 0.0 mm 281 W/m2
10:10 18.3 °C 15.9 °C 1025.3 hPa NW 3.2 km/h 6.4 km/h 86 % 0.0 mm 311 W/m2
10:15 18.3 °C 15.3 °C 1025.3 hPa WNW 3.2 km/h 6.4 km/h 83 % 0.0 mm 274 W/m2
10:20 18.3 °C 15.5 °C 1025.3 hPa WSW 4.8 km/h 8.0 km/h 84 % 0.0 mm 279 W/m2
10:25 18.3 °C 15.3 °C 1025.3 hPa SW 11.3 km/h 14.5 km/h 83 % 0.0 mm 272 W/m2
10:30 18.4 °C 15.5 °C 1025.3 hPa West 4.8 km/h 16.1 km/h 83 % 0.0 mm 230 W/m2
10:35 18.6 °C 15.4 °C 1025.3 hPa NW 3.2 km/h 16.1 km/h 82 % 0.0 mm 338 W/m2
10:40 18.7 °C 15.4 °C 1025.3 hPa West 4.8 km/h 14.5 km/h 81 % 0.0 mm 304 W/m2
10:45 18.7 °C 15.2 °C 1025.3 hPa West 4.8 km/h 16.1 km/h 80 % 0.0 mm 301 W/m2
10:50 18.8 °C 15.3 °C 1025.3 hPa West 1.6 km/h 16.1 km/h 80 % 0.0 mm 260 W/m2
10:55 18.7 °C 15.3 °C 1025.3 hPa NW 9.7 km/h 16.1 km/h 81 % 0.0 mm 244 W/m2
11:00 18.6 °C 15.2 °C 1025.3 hPa WSW 6.4 km/h 17.7 km/h 81 % 0.0 mm 220 W/m2
11:05 18.6 °C 15.5 °C 1025.3 hPa WSW 3.2 km/h 17.7 km/h 82 % 0.0 mm 197 W/m2
11:10 18.5 °C 15.2 °C 1025.3 hPa WSW 4.8 km/h 14.5 km/h 81 % 0.0 mm 167 W/m2
11:15 18.2 °C 14.9 °C 1025.3 hPa WSW 11.3 km/h 17.7 km/h 81 % 0.0 mm 155 W/m2
11:20 18.2 °C 15.0 °C 1025.3 hPa SW 4.8 km/h 17.7 km/h 82 % 0.0 mm 167 W/m2
11:25 18.2 °C 15.1 °C 1025.3 hPa WNW 11.3 km/h 11.3 km/h 82 % 0.0 mm 199 W/m2
11:30 18.3 °C 15.2 °C 1025.3 hPa NW 8.0 km/h 14.5 km/h 82 % 0.0 mm 216 W/m2
11:35 18.3 °C 15.2 °C 1025.3 hPa West 1.6 km/h 14.5 km/h 82 % 0.0 mm 269 W/m2
11:40 18.7 °C 15.4 °C 1025.3 hPa West 9.7 km/h 12.9 km/h 81 % 0.0 mm 348 W/m2
11:45 18.8 °C 15.1 °C 1024.9 hPa West 11.3 km/h 14.5 km/h 79 % 0.0 mm 348 W/m2
11:50 18.6 °C 15.1 °C 1025.3 hPa WSW 6.4 km/h 20.9 km/h 80 % 0.0 mm 373 W/m2
11:55 18.6 °C 15.1 °C 1024.9 hPa WSW 9.7 km/h 20.9 km/h 80 % 0.0 mm 503 W/m2
12:00 18.7 °C 14.8 °C 1024.9 hPa WSW 4.8 km/h 20.9 km/h 78 % 0.0 mm 441 W/m2
12:05 18.7 °C 14.8 °C 1025.3 hPa West 14.5 km/h 20.9 km/h 78 % 0.0 mm 438 W/m2
12:10 18.8 °C 15.3 °C 1024.9 hPa WNW 14.5 km/h 19.3 km/h 80 % 0.0 mm 471 W/m2
12:15 19.0 °C 15.3 °C 1024.9 hPa WNW 9.7 km/h 19.3 km/h 79 % 0.0 mm 547 W/m2
12:20 19.2 °C 15.0 °C 1024.9 hPa West 3.2 km/h 19.3 km/h 77 % 0.0 mm 446 W/m2
12:25 18.9 °C 15.0 °C 1024.9 hPa West 9.7 km/h 20.9 km/h 78 % 0.0 mm 531 W/m2
12:30 19.0 °C 15.1 °C 1025.3 hPa West 11.3 km/h 20.9 km/h 78 % 0.0 mm 512 W/m2
12:35 18.9 °C 15.0 °C 1025.3 hPa WNW 11.3 km/h 24.1 km/h 78 % 0.0 mm 547 W/m2
12:40 19.3 °C 15.1 °C 1025.3 hPa WNW 14.5 km/h 24.1 km/h 77 % 0.0 mm 534 W/m2
12:45 19.1 °C 15.1 °C 1025.3 hPa SW 16.1 km/h 24.1 km/h 78 % 0.0 mm 520 W/m2
12:50 19.0 °C 15.1 °C 1025.3 hPa SW 12.9 km/h 22.5 km/h 78 % 0.0 mm 1081 W/m2
12:55 19.8 °C 15.0 °C 1025.3 hPa West 17.7 km/h 20.9 km/h 74 % 0.0 mm 960 W/m2
13:00 19.6 °C 14.8 °C 1024.9 hPa West 12.9 km/h 24.1 km/h 74 % 0.0 mm 875 W/m2
13:05 19.7 °C 15.1 °C 1024.9 hPa SW 11.3 km/h 25.7 km/h 75 % 0.0 mm 896 W/m2
13:10 19.4 °C 14.9 °C 1024.9 hPa West 6.4 km/h 27.4 km/h 75 % 0.0 mm 847 W/m2
13:15 19.6 °C 15.2 °C 1024.9 hPa NW 9.7 km/h 27.4 km/h 76 % 0.0 mm 826 W/m2
13:20 20.4 °C 15.6 °C 1024.9 hPa WSW 4.8 km/h 19.3 km/h 74 % 0.0 mm 865 W/m2
13:25 20.6 °C 15.3 °C 1024.9 hPa West 11.3 km/h 24.1 km/h 72 % 0.0 mm 863 W/m2
13:30 20.6 °C 15.1 °C 1024.9 hPa WSW 17.7 km/h 24.1 km/h 71 % 0.0 mm 895 W/m2
13:35 20.3 °C 15.3 °C 1024.9 hPa WNW 6.4 km/h 22.5 km/h 73 % 0.0 mm 881 W/m2
13:40 20.4 °C 14.8 °C 1024.9 hPa West 19.3 km/h 22.5 km/h 70 % 0.0 mm 909 W/m2
13:45 19.7 °C 14.5 °C 1024.9 hPa WNW 11.3 km/h 24.1 km/h 72 % 0.0 mm 898 W/m2
13:50 19.5 °C 14.1 °C 1025.3 hPa West 14.5 km/h 24.1 km/h 71 % 0.0 mm 904 W/m2
13:55 19.4 °C 14.0 °C 1024.9 hPa West 17.7 km/h 24.1 km/h 71 % 0.0 mm 905 W/m2
14:00 19.8 °C 14.9 °C 1024.9 hPa West 12.9 km/h 24.1 km/h 73 % 0.0 mm 877 W/m2
14:05 20.1 °C 14.2 °C 1024.9 hPa West 14.5 km/h 22.5 km/h 69 % 0.0 mm 914 W/m2
14:10 19.4 °C 14.2 °C 1024.9 hPa West 12.9 km/h 24.1 km/h 72 % 0.0 mm 914 W/m2
14:15 19.3 °C 14.2 °C 1024.9 hPa WSW 6.4 km/h 24.1 km/h 72 % 0.0 mm 911 W/m2
14:20 20.0 °C 14.8 °C 1024.9 hPa SW 4.8 km/h 20.9 km/h 72 % 0.0 mm 907 W/m2
14:25 20.2 °C 14.6 °C 1024.9 hPa West 12.9 km/h 20.9 km/h 70 % 0.0 mm 905 W/m2
14:30 19.4 °C 13.8 °C 1024.9 hPa WSW 8.0 km/h 24.1 km/h 70 % 0.0 mm 904 W/m2
14:35 19.3 °C 14.1 °C 1024.9 hPa WNW 4.8 km/h 24.1 km/h 72 % 0.0 mm 898 W/m2
14:40 19.4 °C 14.4 °C 1024.9 hPa NW 9.7 km/h 24.1 km/h 73 % 0.0 mm 911 W/m2
14:45 19.3 °C 14.1 °C 1024.9 hPa West 11.3 km/h 24.1 km/h 72 % 0.0 mm 893 W/m2
14:50 19.2 °C 13.8 °C 1024.9 hPa West 8.0 km/h 24.1 km/h 71 % 0.0 mm 895 W/m2
14:55 19.3 °C 14.2 °C 1024.9 hPa WSW 12.9 km/h 24.1 km/h 72 % 0.0 mm 872 W/m2
15:00 19.5 °C 13.7 °C 1024.6 hPa NW 3.2 km/h 24.1 km/h 69 % 0.0 mm 886 W/m2
15:05 19.9 °C 14.1 °C 1024.9 hPa WNW 6.4 km/h 22.5 km/h 69 % 0.0 mm 875 W/m2
15:10 19.6 °C 13.9 °C 1024.6 hPa WNW 6.4 km/h 17.7 km/h 70 % 0.0 mm 879 W/m2
15:15 20.4 °C 13.8 °C 1024.9 hPa WSW 3.2 km/h 22.5 km/h 66 % 0.0 mm 882 W/m2
15:20 19.7 °C 13.6 °C 1024.6 hPa WSW 19.3 km/h 22.5 km/h 68 % 0.0 mm 881 W/m2
15:25 19.8 °C 14.4 °C 1024.6 hPa WSW 11.3 km/h 24.1 km/h 71 % 0.0 mm 847 W/m2
15:30 19.9 °C 14.1 °C 1024.6 hPa West 9.7 km/h 24.1 km/h 69 % 0.0 mm 867 W/m2
15:35 19.6 °C 13.7 °C 1024.6 hPa West 9.7 km/h 19.3 km/h 69 % 0.0 mm 858 W/m2
15:40 19.6 °C 14.0 °C 1024.6 hPa WNW 11.3 km/h 22.5 km/h 70 % 0.0 mm 851 W/m2
15:45 19.7 °C 14.3 °C 1024.6 hPa WNW 9.7 km/h 22.5 km/h 71 % 0.0 mm 849 W/m2
15:50 20.2 °C 14.3 °C 1024.6 hPa West 14.5 km/h 24.1 km/h 69 % 0.0 mm 821 W/m2
15:55 20.1 °C 14.2 °C 1024.6 hPa West 4.8 km/h 24.1 km/h 69 % 0.0 mm 831 W/m2
16:00 20.2 °C 14.3 °C 1024.6 hPa WNW 16.1 km/h 19.3 km/h 69 % 0.0 mm 826 W/m2
16:05 20.4 °C 15.0 °C 1024.6 hPa WNW 9.7 km/h 19.3 km/h 71 % 0.0 mm 796 W/m2
16:10 19.8 °C 14.2 °C 1024.6 hPa WNW 6.4 km/h 20.9 km/h 70 % 0.0 mm 807 W/m2
16:15 19.9 °C 14.1 °C 1024.6 hPa WNW 12.9 km/h 22.5 km/h 69 % 0.0 mm 793 W/m2
16:20 19.9 °C 14.1 °C 1024.6 hPa WSW 11.3 km/h 22.5 km/h 69 % 0.0 mm 745 W/m2
16:25 19.7 °C 14.3 °C 1024.6 hPa West 12.9 km/h 20.9 km/h 71 % 0.0 mm 773 W/m2
16:30 20.0 °C 14.6 °C 1024.3 hPa WSW 12.9 km/h 20.9 km/h 71 % 0.0 mm 724 W/m2
16:35 20.4 °C 14.3 °C 1024.3 hPa WNW 8.0 km/h 19.3 km/h 68 % 0.0 mm 737 W/m2
16:40 20.6 °C 14.7 °C 1024.6 hPa WNW 12.9 km/h 20.9 km/h 69 % 0.0 mm 768 W/m2
16:45 20.0 °C 14.4 °C 1024.3 hPa West 8.0 km/h 24.1 km/h 70 % 0.0 mm 738 W/m2
16:50 19.3 °C 13.9 °C 1024.3 hPa WNW 9.7 km/h 25.7 km/h 71 % 0.0 mm 693 W/m2
16:55 19.3 °C 14.4 °C 1024.3 hPa West 4.8 km/h 25.7 km/h 73 % 0.0 mm 643 W/m2
17:00 20.1 °C 14.5 °C 1024.3 hPa West 3.2 km/h 19.3 km/h 70 % 0.0 mm 684 W/m2
17:05 20.1 °C 14.5 °C 1024.3 hPa West 4.8 km/h 17.7 km/h 70 % 0.0 mm 657 W/m2
17:10 19.7 °C 14.3 °C 1024.3 hPa WNW 6.4 km/h 24.1 km/h 71 % 0.0 mm 686 W/m2
17:15 20.1 °C 14.9 °C 1024.3 hPa West 9.7 km/h 24.1 km/h 72 % 0.0 mm 677 W/m2
17:20 20.3 °C 14.7 °C 1023.9 hPa West 12.9 km/h 22.5 km/h 70 % 0.0 mm 668 W/m2
17:25 20.2 °C 14.6 °C 1024.3 hPa WSW 8.0 km/h 22.5 km/h 70 % 0.0 mm 666 W/m2
17:30 20.4 °C 14.8 °C 1023.9 hPa WSW 8.0 km/h 17.7 km/h 70 % 0.0 mm 654 W/m2
17:35 20.1 °C 14.4 °C 1023.9 hPa West 14.5 km/h 22.5 km/h 70 % 0.0 mm 631 W/m2
17:40 20.2 °C 14.7 °C 1023.9 hPa West 3.2 km/h 22.5 km/h 71 % 0.0 mm 621 W/m2
17:45 20.3 °C 14.4 °C 1023.9 hPa WNW 14.5 km/h 20.9 km/h 69 % 0.0 mm 606 W/m2
17:50 20.6 °C 14.9 °C 1023.9 hPa WSW 6.4 km/h 25.7 km/h 70 % 0.0 mm 603 W/m2
17:55 20.5 °C 14.8 °C 1023.9 hPa West 9.7 km/h 25.7 km/h 70 % 0.0 mm 585 W/m2
18:00 20.2 °C 14.6 °C 1023.9 hPa WNW 22.5 km/h 22.5 km/h 70 % 0.0 mm 573 W/m2
18:05 19.7 °C 14.5 °C 1023.9 hPa WNW 14.5 km/h 22.5 km/h 72 % 0.0 mm 557 W/m2
18:10 19.4 °C 14.5 °C 1023.9 hPa NW 11.3 km/h 24.1 km/h 73 % 0.0 mm 547 W/m2
18:15 20.0 °C 14.6 °C 1023.9 hPa WNW 17.7 km/h 24.1 km/h 71 % 0.0 mm 534 W/m2
18:20 19.3 °C 14.4 °C 1023.9 hPa WNW 11.3 km/h 24.1 km/h 73 % 0.0 mm 520 W/m2
18:25 19.4 °C 14.6 °C 1023.6 hPa WSW 6.4 km/h 24.1 km/h 74 % 0.0 mm 508 W/m2
18:30 19.1 °C 14.5 °C 1023.6 hPa WNW 8.0 km/h 22.5 km/h 75 % 0.0 mm 496 W/m2
18:35 19.2 °C 14.6 °C 1023.6 hPa West 4.8 km/h 20.9 km/h 75 % 0.0 mm 482 W/m2
18:40 19.4 °C 14.6 °C 1023.6 hPa WSW 11.3 km/h 24.1 km/h 74 % 0.0 mm 468 W/m2
18:45 19.6 °C 14.8 °C 1023.6 hPa West 11.3 km/h 24.1 km/h 74 % 0.0 mm 454 W/m2
18:50 19.6 °C 15.0 °C 1023.2 hPa NW 1.6 km/h 19.3 km/h 75 % 0.0 mm 441 W/m2
18:55 19.6 °C 14.6 °C 1023.6 hPa West 9.7 km/h 17.7 km/h 73 % 0.0 mm 427 W/m2
19:00 19.7 °C 15.0 °C 1023.2 hPa West 8.0 km/h 17.7 km/h 74 % 0.0 mm 411 W/m2
19:05 19.7 °C 14.7 °C 1023.2 hPa WSW 6.4 km/h 16.1 km/h 73 % 0.0 mm 397 W/m2
19:10 19.9 °C 15.1 °C 1023.2 hPa West 16.1 km/h 16.1 km/h 74 % 0.0 mm 383 W/m2
19:15 19.2 °C 14.7 °C 1023.2 hPa NW 6.4 km/h 17.7 km/h 75 % 0.0 mm 371 W/m2
19:20 19.3 °C 14.5 °C 1023.2 hPa WNW 4.8 km/h 17.7 km/h 74 % 0.0 mm 359 W/m2
19:25 18.9 °C 14.4 °C 1023.2 hPa SW 11.3 km/h 17.7 km/h 75 % 0.0 mm 343 W/m2
19:30 18.8 °C 14.5 °C 1023.2 hPa West 8.0 km/h 17.7 km/h 76 % 0.0 mm 327 W/m2
19:35 18.7 °C 14.4 °C 1023.2 hPa West 17.7 km/h 19.3 km/h 76 % 0.0 mm 308 W/m2
19:40 18.6 °C 14.7 °C 1023.2 hPa NW 8.0 km/h 19.3 km/h 78 % 0.0 mm 288 W/m2
19:45 18.7 °C 14.6 °C 1023.2 hPa West 12.9 km/h 17.7 km/h 77 % 0.0 mm 262 W/m2
19:50 18.6 °C 14.6 °C 1023.2 hPa WSW 11.3 km/h 17.7 km/h 78 % 0.0 mm 241 W/m2
19:55 18.6 °C 14.6 °C 1023.2 hPa West 8.0 km/h 17.7 km/h 78 % 0.0 mm 218 W/m2
20:00 18.6 °C 14.7 °C 1023.2 hPa WSW 6.4 km/h 22.5 km/h 78 % 0.0 mm 204 W/m2
20:05 18.7 °C 14.8 °C 1023.2 hPa West 8.0 km/h 22.5 km/h 78 % 0.0 mm 160 W/m2
20:10 18.4 °C 14.7 °C 1023.2 hPa West 6.4 km/h 19.3 km/h 79 % 0.0 mm 118 W/m2
20:15 18.2 °C 14.7 °C 1023.2 hPa West 8.0 km/h 19.3 km/h 80 % 0.0 mm 172 W/m2
20:20 18.0 °C 14.5 °C 1023.2 hPa West 3.2 km/h 19.3 km/h 80 % 0.0 mm 149 W/m2
20:25 17.9 °C 14.6 °C 1022.9 hPa NW 8.0 km/h 19.3 km/h 81 % 0.0 mm 121 W/m2
20:30 17.8 °C 14.5 °C 1022.9 hPa West 8.0 km/h 17.7 km/h 81 % 0.0 mm 104 W/m2
20:35 17.8 °C 14.7 °C 1022.9 hPa WSW 11.3 km/h 14.5 km/h 82 % 0.0 mm 130 W/m2
20:40 17.7 °C 14.6 °C 1022.9 hPa West 12.9 km/h 17.7 km/h 82 % 0.0 mm 72 W/m2
20:45 17.5 °C 14.4 °C 1022.9 hPa West 11.3 km/h 17.7 km/h 82 % 0.0 mm 54 W/m2
20:50 17.4 °C 14.5 °C 1022.9 hPa West 14.5 km/h 17.7 km/h 83 % 0.0 mm 56 W/m2
20:55 17.3 °C 14.4 °C 1022.9 hPa West 1.6 km/h 16.1 km/h 83 % 0.0 mm 56 W/m2
21:00 17.3 °C 14.6 °C 1022.9 hPa West 8.0 km/h 16.1 km/h 84 % 0.0 mm 47 W/m2
21:05 17.3 °C 14.5 °C 1022.9 hPa WSW 3.2 km/h 14.5 km/h 84 % 0.0 mm 40 W/m2
21:10 17.2 °C 14.4 °C 1022.9 hPa WNW 4.8 km/h 14.5 km/h 84 % 0.0 mm 32 W/m2
21:15 17.1 °C 14.4 °C 1022.9 hPa West 6.4 km/h 12.9 km/h 84 % 0.0 mm 30 W/m2
21:20 17.1 °C 14.4 °C 1022.9 hPa WNW 3.2 km/h 14.5 km/h 84 % 0.0 mm 28 W/m2
21:25 17.1 °C 14.5 °C 1022.9 hPa WSW 8.0 km/h 14.5 km/h 85 % 0.0 mm 26 W/m2
21:30 17.0 °C 14.5 °C 1022.9 hPa WNW 3.2 km/h 12.9 km/h 85 % 0.0 mm 26 W/m2
21:35 16.9 °C 14.3 °C 1022.9 hPa Calm   12.9 km/h 85 % 0.0 mm 25 W/m2
21:40 16.8 °C 14.5 °C 1022.6 hPa WSW 3.2 km/h 12.9 km/h 86 % 0.0 mm 21 W/m2
21:45 16.8 °C 14.4 °C 1022.9 hPa West 1.6 km/h 12.9 km/h 86 % 0.0 mm 19 W/m2
21:50 16.7 °C 14.4 °C 1022.6 hPa WNW 3.2 km/h 12.9 km/h 86 % 0.0 mm 16 W/m2
21:55 16.6 °C 14.4 °C 1022.6 hPa WNW 4.8 km/h 12.9 km/h 87 % 0.0 mm 12 W/m2
22:00 16.6 °C 14.4 °C 1022.6 hPa Calm   9.7 km/h 87 % 0.0 mm 11 W/m2
22:05 16.4 °C 14.3 °C 1022.6 hPa WNW 4.8 km/h 11.3 km/h 87 % 0.0 mm 7 W/m2
22:10 16.3 °C 14.3 °C 1022.6 hPa West 1.6 km/h 11.3 km/h 88 % 0.0 mm 5 W/m2
22:15 16.2 °C 14.2 °C 1022.6 hPa WNW 1.6 km/h 9.7 km/h 88 % 0.0 mm 0 W/m2
22:20 15.8 °C 13.8 °C 1022.6 hPa Calm   9.7 km/h 88 % 0.0 mm 0 W/m2
22:25 15.7 °C 13.9 °C 1022.6 hPa West 3.2 km/h 8.0 km/h 89 % 0.0 mm 0 W/m2
22:30 15.6 °C 13.9 °C 1022.9 hPa Calm   6.4 km/h 90 % 0.0 mm 0 W/m2
22:35 15.5 °C 14.0 °C 1022.9 hPa Calm   6.4 km/h 91 % 0.0 mm 0 W/m2
22:40 15.4 °C 13.8 °C 1022.9 hPa West 1.6 km/h 6.4 km/h 90 % 0.0 mm 0 W/m2
22:45 15.3 °C 13.9 °C 1022.9 hPa WNW 1.6 km/h 4.8 km/h 91 % 0.0 mm 0 W/m2
22:50 15.2 °C 13.7 °C 1022.9 hPa WNW 1.6 km/h 6.4 km/h 91 % 0.0 mm 0 W/m2
22:55 15.1 °C 13.8 °C 1022.9 hPa WNW 1.6 km/h 6.4 km/h 92 % 0.0 mm 0 W/m2
23:00 14.9 °C 13.7 °C 1022.9 hPa WNW 3.2 km/h 9.7 km/h 92 % 0.0 mm 0 W/m2
23:05 14.8 °C 13.5 °C 1022.9 hPa Calm   9.7 km/h 92 % 0.0 mm 0 W/m2
23:10 14.7 °C 13.4 °C 1022.9 hPa WNW 3.2 km/h 6.4 km/h 92 % 0.0 mm 0 W/m2
23:15 14.8 °C 13.7 °C 1022.9 hPa NW 1.6 km/h 8.0 km/h 93 % 0.0 mm 0 W/m2
23:20 14.9 °C 13.8 °C 1022.9 hPa NW 6.4 km/h 8.0 km/h 93 % 0.0 mm 0 W/m2
23:25 14.8 °C 13.7 °C 1022.9 hPa Calm   8.0 km/h 93 % 0.0 mm 0 W/m2
23:30 14.9 °C 13.6 °C 1022.9 hPa WNW 4.8 km/h 9.7 km/h 92 % 0.0 mm 0 W/m2
23:35 14.8 °C 13.5 °C 1022.9 hPa WNW 1.6 km/h 9.7 km/h 92 % 0.0 mm 0 W/m2
23:40 14.7 °C 13.5 °C 1022.9 hPa Calm   6.4 km/h 93 % 0.0 mm 0 W/m2
23:45 14.6 °C 13.4 °C 1022.9 hPa WNW 1.6 km/h 6.4 km/h 93 % 0.0 mm 0 W/m2
23:50 14.5 °C 13.5 °C 1022.9 hPa Calm   6.4 km/h 94 % 0.0 mm 0 W/m2
23:55 14.4 °C 13.3 °C 1022.9 hPa Calm   6.4 km/h 93 % 0.0 mm 0 W/m2
Avec l'autorisation de Weather Underground - 1.75 mb